sensor_id;sensor_type;location;lat;lon;timestamp;pressure;altitude;pressure_sealevel;temperature;humidity
24858;BME280;12935;50.782;6.074;2023-07-20T00:01:25;99390.25;;;17.19;100.00
24858;BME280;12935;50.782;6.074;2023-07-20T00:03:50;99389.16;;;17.29;100.00
24858;BME280;12935;50.782;6.074;2023-07-20T00:06:23;99393.88;;;17.16;100.00
24858;BME280;12935;50.782;6.074;2023-07-20T00:08:50;99390.25;;;17.19;100.00
24858;BME280;12935;50.782;6.074;2023-07-20T00:11:15;99386.94;;;17.11;100.00
24858;BME280;12935;50.782;6.074;2023-07-20T00:13:41;99388.69;;;17.05;100.00
24858;BME280;12935;50.782;6.074;2023-07-20T00:16:06;99388.47;;;17.00;100.00
24858;BME280;12935;50.782;6.074;2023-07-20T00:18:31;99387.03;;;17.08;100.00
24858;BME280;12935;50.782;6.074;2023-07-20T00:20:57;99393.22;;;16.99;100.00
24858;BME280;12935;50.782;6.074;2023-07-20T00:23:22;99386.81;;;17.02;100.00
24858;BME280;12935;50.782;6.074;2023-07-20T00:25:48;99387.59;;;17.15;100.00
24858;BME280;12935;50.782;6.074;2023-07-20T00:28:14;99385.94;;;17.18;100.00
24858;BME280;12935;50.782;6.074;2023-07-20T00:30:39;99387.81;;;17.08;100.00
24858;BME280;12935;50.782;6.074;2023-07-20T00:33:09;99379.28;;;16.90;100.00
24858;BME280;12935;50.782;6.074;2023-07-20T00:35:35;99385.94;;;17.05;100.00
24858;BME280;12935;50.782;6.074;2023-07-20T00:38:00;99392.44;;;16.99;100.00
24858;BME280;12935;50.782;6.074;2023-07-20T00:40:25;99390.06;;;16.84;100.00
24858;BME280;12935;50.782;6.074;2023-07-20T00:42:51;99391.06;;;16.65;100.00
24858;BME280;12935;50.782;6.074;2023-07-20T00:45:16;99391.50;;;16.76;100.00
24858;BME280;12935;50.782;6.074;2023-07-20T00:47:42;99385.66;;;16.87;100.00
24858;BME280;12935;50.782;6.074;2023-07-20T00:50:08;99391.88;;;16.91;100.00
24858;BME280;12935;50.782;6.074;2023-07-20T00:52:35;99378.75;;;16.95;100.00
24858;BME280;12935;50.782;6.074;2023-07-20T00:55:01;99393.84;;;16.91;100.00
24858;BME280;12935;50.782;6.074;2023-07-20T00:57:27;99388.56;;;16.83;100.00
24858;BME280;12935;50.782;6.074;2023-07-20T00:59:52;99387.31;;;16.84;100.00
24858;BME280;12935;50.782;6.074;2023-07-20T01:02:18;99394.09;;;16.96;100.00
24858;BME280;12935;50.782;6.074;2023-07-20T01:04:43;99376.97;;;17.01;100.00
24858;BME280;12935;50.782;6.074;2023-07-20T01:07:23;99387.47;;;17.06;100.00
24858;BME280;12935;50.782;6.074;2023-07-20T01:12:51;99380.66;;;16.69;100.00
24858;BME280;12935;50.782;6.074;2023-07-20T01:15:17;99378.09;;;16.62;100.00
24858;BME280;12935;50.782;6.074;2023-07-20T01:17:42;99378.19;;;16.59;100.00
24858;BME280;12935;50.782;6.074;2023-07-20T01:20:09;99379.25;;;16.65;100.00
24858;BME280;12935;50.782;6.074;2023-07-20T01:31:34;99369.31;;;16.67;100.00
24858;BME280;12935;50.782;6.074;2023-07-20T01:34:02;99371.75;;;16.78;100.00
24858;BME280;12935;50.782;6.074;2023-07-20T01:36:30;99376.50;;;16.77;100.00
24858;BME280;12935;50.782;6.074;2023-07-20T01:38:58;99376.25;;;16.72;100.00
24858;BME280;12935;50.782;6.074;2023-07-20T01:41:24;99377.91;;;16.69;100.00
24858;BME280;12935;50.782;6.074;2023-07-20T01:43:49;99359.28;;;16.44;100.00
24858;BME280;12935;50.782;6.074;2023-07-20T01:46:14;99370.44;;;16.54;100.00
24858;BME280;12935;50.782;6.074;2023-07-20T01:48:40;99370.25;;;16.61;100.00
24858;BME280;12935;50.782;6.074;2023-07-20T01:51:05;99375.00;;;16.60;100.00
24858;BME280;12935;50.782;6.074;2023-07-20T01:53:31;99376.53;;;16.61;100.00
24858;BME280;12935;50.782;6.074;2023-07-20T01:55:56;99375.66;;;16.52;100.00
24858;BME280;12935;50.782;6.074;2023-07-20T01:58:22;99375.78;;;16.61;100.00
24858;BME280;12935;50.782;6.074;2023-07-20T02:00:47;99367.34;;;16.68;100.00
24858;BME280;12935;50.782;6.074;2023-07-20T02:03:12;99364.56;;;16.68;100.00
24858;BME280;12935;50.782;6.074;2023-07-20T02:05:38;99359.50;;;16.66;100.00
24858;BME280;12935;50.782;6.074;2023-07-20T02:08:04;99365.25;;;16.56;100.00
24858;BME280;12935;50.782;6.074;2023-07-20T02:10:29;99363.47;;;16.36;100.00
24858;BME280;12935;50.782;6.074;2023-07-20T02:12:54;99366.59;;;16.51;100.00
24858;BME280;12935;50.782;6.074;2023-07-20T02:15:20;99367.81;;;16.50;100.00
24858;BME280;12935;50.782;6.074;2023-07-20T02:17:46;99362.06;;;16.57;100.00
24858;BME280;12935;50.782;6.074;2023-07-20T02:20:11;99358.19;;;16.55;100.00
24858;BME280;12935;50.782;6.074;2023-07-20T02:22:38;99369.34;;;16.51;100.00
24858;BME280;12935;50.782;6.074;2023-07-20T02:25:04;99362.94;;;16.54;100.00
24858;BME280;12935;50.782;6.074;2023-07-20T02:27:30;99361.84;;;16.52;100.00
24858;BME280;12935;50.782;6.074;2023-07-20T02:29:56;99363.84;;;16.51;100.00
24858;BME280;12935;50.782;6.074;2023-07-20T02:32:21;99363.41;;;16.53;100.00
24858;BME280;12935;50.782;6.074;2023-07-20T02:34:46;99368.03;;;16.56;100.00
24858;BME280;12935;50.782;6.074;2023-07-20T02:37:12;99372.63;;;16.46;100.00
24858;BME280;12935;50.782;6.074;2023-07-20T02:39:38;99361.47;;;16.37;100.00
24858;BME280;12935;50.782;6.074;2023-07-20T02:42:04;99368.84;;;16.40;100.00
24858;BME280;12935;50.782;6.074;2023-07-20T02:44:29;99370.78;;;16.56;100.00
24858;BME280;12935;50.782;6.074;2023-07-20T02:46:55;99368.03;;;16.56;100.00
24858;BME280;12935;50.782;6.074;2023-07-20T02:49:20;99377.50;;;16.55;100.00
24858;BME280;12935;50.782;6.074;2023-07-20T02:51:45;99372.00;;;16.55;100.00
24858;BME280;12935;50.782;6.074;2023-07-20T02:54:11;99363.25;;;16.43;100.00
24858;BME280;12935;50.782;6.074;2023-07-20T02:56:37;99376.16;;;16.46;100.00
24858;BME280;12935;50.782;6.074;2023-07-20T02:59:02;99377.84;;;16.57;100.00
24858;BME280;12935;50.782;6.074;2023-07-20T03:01:28;99370.13;;;16.52;100.00
24858;BME280;12935;50.782;6.074;2023-07-20T03:03:55;99382.44;;;16.63;100.00
24858;BME280;12935;50.782;6.074;2023-07-20T03:06:20;99382.56;;;16.72;100.00
24858;BME280;12935;50.782;6.074;2023-07-20T03:08:45;99383.66;;;16.75;100.00
24858;BME280;12935;50.782;6.074;2023-07-20T03:11:13;99389.78;;;16.82;100.00
24858;BME280;12935;50.782;6.074;2023-07-20T03:13:40;99389.63;;;16.86;100.00
24858;BME280;12935;50.782;6.074;2023-07-20T03:16:05;99390.22;;;16.94;100.00
24858;BME280;12935;50.782;6.074;2023-07-20T03:18:39;99384.44;;;16.75;100.00
24858;BME280;12935;50.782;6.074;2023-07-20T03:21:05;99387.19;;;16.75;100.00
24858;BME280;12935;50.782;6.074;2023-07-20T03:23:31;99387.00;;;16.82;100.00
24858;BME280;12935;50.782;6.074;2023-07-20T03:25:56;99387.78;;;16.83;100.00
24858;BME280;12935;50.782;6.074;2023-07-20T03:28:22;99392.09;;;16.84;100.00
24858;BME280;12935;50.782;6.074;2023-07-20T03:30:55;99391.97;;;16.88;100.00
24858;BME280;12935;50.782;6.074;2023-07-20T03:33:26;99381.94;;;16.81;100.00
24858;BME280;12935;50.782;6.074;2023-07-20T03:35:51;99387.28;;;16.72;100.00
24858;BME280;12935;50.782;6.074;2023-07-20T03:38:17;99390.31;;;16.48;100.00
24858;BME280;12935;50.782;6.074;2023-07-20T03:40:56;99393.16;;;16.45;100.00
24858;BME280;12935;50.782;6.074;2023-07-20T03:43:23;99387.88;;;16.51;100.00
24858;BME280;12935;50.782;6.074;2023-07-20T03:45:49;99391.06;;;16.49;100.00
24858;BME280;12935;50.782;6.074;2023-07-20T03:48:19;99394.59;;;16.49;100.00
24858;BME280;12935;50.782;6.074;2023-07-20T03:50:45;99401.25;;;16.52;100.00
24858;BME280;12935;50.782;6.074;2023-07-20T03:53:12;99400.78;;;16.54;100.00
24858;BME280;12935;50.782;6.074;2023-07-20T03:55:37;99405.34;;;16.31;100.00
24858;BME280;12935;50.782;6.074;2023-07-20T03:58:03;99404.31;;;16.25;100.00
24858;BME280;12935;50.782;6.074;2023-07-20T04:00:28;99404.94;;;16.17;100.00
24858;BME280;12935;50.782;6.074;2023-07-20T04:02:53;99404.16;;;16.16;100.00
24858;BME280;12935;50.782;6.074;2023-07-20T04:05:19;99405.81;;;16.13;100.00
24858;BME280;12935;50.782;6.074;2023-07-20T04:07:44;99401.25;;;16.07;100.00
24858;BME280;12935;50.782;6.074;2023-07-20T04:10:10;99408.03;;;16.19;100.00
24858;BME280;12935;50.782;6.074;2023-07-20T04:12:35;99407.94;;;16.22;100.00
24858;BME280;12935;50.782;6.074;2023-07-20T04:15:01;99412.84;;;16.31;100.00
24858;BME280;12935;50.782;6.074;2023-07-20T04:17:26;99399.66;;;16.22;100.00
24858;BME280;12935;50.782;6.074;2023-07-20T04:19:51;99409.25;;;16.18;100.00
24858;BME280;12935;50.782;6.074;2023-07-20T04:22:16;99413.19;;;16.33;100.00
24858;BME280;12935;50.782;6.074;2023-07-20T04:24:42;99410.56;;;16.42;100.00
24858;BME280;12935;50.782;6.074;2023-07-20T04:27:08;99408.72;;;16.23;100.00
24858;BME280;12935;50.782;6.074;2023-07-20T04:29:33;99408.22;;;16.11;100.00
24858;BME280;12935;50.782;6.074;2023-07-20T04:31:58;99416.75;;;16.17;100.00
24858;BME280;12935;50.782;6.074;2023-07-20T04:34:24;99415.63;;;16.14;100.00
24858;BME280;12935;50.782;6.074;2023-07-20T04:36:49;99412.59;;;16.09;100.00
24858;BME280;12935;50.782;6.074;2023-07-20T04:39:14;99416.84;;;16.13;100.00
24858;BME280;12935;50.782;6.074;2023-07-20T04:41:39;99423.13;;;16.14;100.00
24858;BME280;12935;50.782;6.074;2023-07-20T04:44:05;99428.81;;;16.07;100.00
24858;BME280;12935;50.782;6.074;2023-07-20T04:46:30;99432.34;;;16.07;100.00
24858;BME280;12935;50.782;6.074;2023-07-20T04:48:55;99430.53;;;16.17;100.00
24858;BME280;12935;50.782;6.074;2023-07-20T04:51:20;99431.81;;;16.29;100.00
24858;BME280;12935;50.782;6.074;2023-07-20T04:53:47;99437.59;;;16.18;100.00
24858;BME280;12935;50.782;6.074;2023-07-20T04:56:13;99434.97;;;16.27;100.00
24858;BME280;12935;50.782;6.074;2023-07-20T04:58:38;99430.88;;;16.19;100.00
24858;BME280;12935;50.782;6.074;2023-07-20T05:01:03;99427.34;;;16.19;100.00
24858;BME280;12935;50.782;6.074;2023-07-20T05:03:29;99424.47;;;16.22;100.00
24858;BME280;12935;50.782;6.074;2023-07-20T05:05:54;99424.31;;;16.29;100.00
24858;BME280;12935;50.782;6.074;2023-07-20T05:08:20;99429.38;;;16.31;100.00
24858;BME280;12935;50.782;6.074;2023-07-20T05:10:47;99421.13;;;16.31;100.00
24858;BME280;12935;50.782;6.074;2023-07-20T05:13:12;99423.09;;;16.30;100.00
24858;BME280;12935;50.782;6.074;2023-07-20T05:15:38;99422.50;;;16.23;100.00
24858;BME280;12935;50.782;6.074;2023-07-20T05:18:03;99418.97;;;16.22;100.00
24858;BME280;12935;50.782;6.074;2023-07-20T05:20:28;99417.59;;;16.30;100.00
24858;BME280;12935;50.782;6.074;2023-07-20T05:22:54;99423.56;;;16.41;100.00
24858;BME280;12935;50.782;6.074;2023-07-20T05:25:19;99418.41;;;16.43;100.00
24858;BME280;12935;50.782;6.074;2023-07-20T05:27:47;99423.31;;;16.52;100.00
24858;BME280;12935;50.782;6.074;2023-07-20T05:30:12;99415.81;;;16.53;100.00
24858;BME280;12935;50.782;6.074;2023-07-20T05:32:38;99420.59;;;16.36;100.00
24858;BME280;12935;50.782;6.074;2023-07-20T05:35:03;99424.31;;;16.29;100.00
24858;BME280;12935;50.782;6.074;2023-07-20T05:37:29;99425.59;;;16.25;100.00
24858;BME280;12935;50.782;6.074;2023-07-20T05:39:54;99423.53;;;16.29;100.00
24858;BME280;12935;50.782;6.074;2023-07-20T05:42:20;99428.59;;;16.30;100.00
24858;BME280;12935;50.782;6.074;2023-07-20T05:44:45;99426.97;;;16.33;100.00
24858;BME280;12935;50.782;6.074;2023-07-20T05:47:13;99412.09;;;16.14;100.00
24858;BME280;12935;50.782;6.074;2023-07-20T05:49:38;99437.75;;;16.27;100.00
24858;BME280;12935;50.782;6.074;2023-07-20T05:52:04;99435.25;;;16.33;100.00
24858;BME280;12935;50.782;6.074;2023-07-20T05:54:29;99440.56;;;16.40;100.00
24858;BME280;12935;50.782;6.074;2023-07-20T05:56:54;99439.13;;;16.35;100.00
24858;BME280;12935;50.782;6.074;2023-07-20T05:59:20;99444.63;;;16.35;100.00
24858;BME280;12935;50.782;6.074;2023-07-20T06:01:46;99446.75;;;16.44;100.00
24858;BME280;12935;50.782;6.074;2023-07-20T06:04:13;99443.06;;;16.51;100.00
24858;BME280;12935;50.782;6.074;2023-07-20T06:06:39;99445.59;;;16.58;100.00
24858;BME280;12935;50.782;6.074;2023-07-20T06:09:04;99446.91;;;16.53;100.00
24858;BME280;12935;50.782;6.074;2023-07-20T06:11:30;99443.56;;;16.45;100.00
24858;BME280;12935;50.782;6.074;2023-07-20T06:13:56;99448.56;;;16.51;100.00
24858;BME280;12935;50.782;6.074;2023-07-20T06:16:22;99455.00;;;16.60;100.00
24858;BME280;12935;50.782;6.074;2023-07-20T06:18:47;99449.41;;;16.64;100.00
24858;BME280;12935;50.782;6.074;2023-07-20T06:21:13;99449.97;;;16.71;100.00
24858;BME280;12935;50.782;6.074;2023-07-20T06:23:38;99447.25;;;16.55;100.00
24858;BME280;12935;50.782;6.074;2023-07-20T06:26:06;99454.25;;;16.43;100.00
24858;BME280;12935;50.782;6.074;2023-07-20T06:28:31;99447.22;;;16.71;100.00
24858;BME280;12935;50.782;6.074;2023-07-20T06:31:00;99445.97;;;17.01;100.00
24858;BME280;12935;50.782;6.074;2023-07-20T06:33:26;99443.38;;;17.10;100.00
24858;BME280;12935;50.782;6.074;2023-07-20T06:35:51;99443.81;;;17.09;100.00
24858;BME280;12935;50.782;6.074;2023-07-20T06:38:17;99446.53;;;16.96;100.00
24858;BME280;12935;50.782;6.074;2023-07-20T06:40:43;99451.72;;;16.94;100.00
24858;BME280;12935;50.782;6.074;2023-07-20T06:43:08;99459.34;;;17.03;100.00
24858;BME280;12935;50.782;6.074;2023-07-20T06:45:33;99456.16;;;17.04;100.00
24858;BME280;12935;50.782;6.074;2023-07-20T06:47:59;99454.41;;;17.10;100.00
24858;BME280;12935;50.782;6.074;2023-07-20T06:50:24;99456.22;;;17.30;100.00
24858;BME280;12935;50.782;6.074;2023-07-20T06:52:50;99459.09;;;17.39;100.00
24858;BME280;12935;50.782;6.074;2023-07-20T06:55:15;99451.78;;;17.32;100.00
24858;BME280;12935;50.782;6.074;2023-07-20T06:57:40;99451.25;;;17.50;100.00
24858;BME280;12935;50.782;6.074;2023-07-20T07:00:06;99456.91;;;17.59;100.00
24858;BME280;12935;50.782;6.074;2023-07-20T07:02:32;99450.81;;;17.51;100.00
24858;BME280;12935;50.782;6.074;2023-07-20T07:04:57;99457.44;;;17.41;100.00
24858;BME280;12935;50.782;6.074;2023-07-20T07:07:22;99459.09;;;17.51;100.00
24858;BME280;12935;50.782;6.074;2023-07-20T07:09:47;99456.38;;;17.77;100.00
24858;BME280;12935;50.782;6.074;2023-07-20T07:12:13;99454.34;;;18.03;100.00
24858;BME280;12935;50.782;6.074;2023-07-20T07:14:39;99444.91;;;18.13;100.00
24858;BME280;12935;50.782;6.074;2023-07-20T07:17:04;99452.81;;;18.36;100.00
24858;BME280;12935;50.782;6.074;2023-07-20T07:19:30;99453.41;;;18.18;100.00
24858;BME280;12935;50.782;6.074;2023-07-20T07:21:55;99454.78;;;18.01;100.00
24858;BME280;12935;50.782;6.074;2023-07-20T07:24:20;99465.88;;;17.76;100.00
24858;BME280;12935;50.782;6.074;2023-07-20T07:26:45;99465.41;;;17.65;100.00
24858;BME280;12935;50.782;6.074;2023-07-20T07:29:11;99459.66;;;17.59;100.00
24858;BME280;12935;50.782;6.074;2023-07-20T07:31:36;99471.59;;;17.56;100.00
24858;BME280;12935;50.782;6.074;2023-07-20T07:34:02;99466.06;;;17.56;100.00
24858;BME280;12935;50.782;6.074;2023-07-20T07:36:28;99464.75;;;17.61;100.00
24858;BME280;12935;50.782;6.074;2023-07-20T07:38:53;99465.53;;;17.86;100.00
24858;BME280;12935;50.782;6.074;2023-07-20T07:41:18;99463.94;;;18.11;100.00
24858;BME280;12935;50.782;6.074;2023-07-20T07:43:44;99462.72;;;18.25;100.00
24858;BME280;12935;50.782;6.074;2023-07-20T07:46:09;99471.69;;;18.16;100.00
24858;BME280;12935;50.782;6.074;2023-07-20T07:48:34;99470.47;;;18.17;100.00
24858;BME280;12935;50.782;6.074;2023-07-20T07:50:59;99474.47;;;18.50;100.00
24858;BME280;12935;50.782;6.074;2023-07-20T07:53:25;99473.75;;;18.93;100.00
24858;BME280;12935;50.782;6.074;2023-07-20T07:55:51;99471.78;;;19.25;100.00
24858;BME280;12935;50.782;6.074;2023-07-20T07:58:16;99476.84;;;19.17;100.00
24858;BME280;12935;50.782;6.074;2023-07-20T08:00:41;99466.34;;;19.12;100.00
24858;BME280;12935;50.782;6.074;2023-07-20T08:03:08;99473.63;;;19.19;100.00
24858;BME280;12935;50.782;6.074;2023-07-20T08:05:34;99470.81;;;18.88;100.00
24858;BME280;12935;50.782;6.074;2023-07-20T08:08:00;99475.81;;;18.80;100.00
24858;BME280;12935;50.782;6.074;2023-07-20T08:10:25;99482.78;;;18.85;100.00
24858;BME280;12935;50.782;6.074;2023-07-20T08:12:51;99472.09;;;18.96;100.00
24858;BME280;12935;50.782;6.074;2023-07-20T08:15:16;99474.44;;;19.07;100.00
24858;BME280;12935;50.782;6.074;2023-07-20T08:17:42;99463.00;;;18.96;100.00
24858;BME280;12935;50.782;6.074;2023-07-20T08:20:10;99470.84;;;18.97;100.00
24858;BME280;12935;50.782;6.074;2023-07-20T08:22:38;99469.88;;;18.91;100.00
24858;BME280;12935;50.782;6.074;2023-07-20T08:25:05;99469.34;;;19.05;100.00
24858;BME280;12935;50.782;6.074;2023-07-20T08:27:31;99475.22;;;19.07;100.00
24858;BME280;12935;50.782;6.074;2023-07-20T08:29:56;99474.00;;;19.08;100.00
24858;BME280;12935;50.782;6.074;2023-07-20T08:32:21;99480.44;;;19.05;100.00
24858;BME280;12935;50.782;6.074;2023-07-20T08:34:47;99480.50;;;19.14;100.00
24858;BME280;12935;50.782;6.074;2023-07-20T08:37:12;99480.50;;;18.92;100.00
24858;BME280;12935;50.782;6.074;2023-07-20T08:39:37;99491.78;;;18.98;100.00
24858;BME280;12935;50.782;6.074;2023-07-20T08:42:04;99487.72;;;19.12;100.00
24858;BME280;12935;50.782;6.074;2023-07-20T08:44:33;99487.31;;;19.44;100.00
24858;BME280;12935;50.782;6.074;2023-07-20T08:47:01;99481.81;;;19.53;98.12
24858;BME280;12935;50.782;6.074;2023-07-20T08:49:29;99493.50;;;19.48;99.73
24858;BME280;12935;50.782;6.074;2023-07-20T08:51:54;99489.00;;;19.73;98.99
24858;BME280;12935;50.782;6.074;2023-07-20T08:54:20;99490.31;;;19.99;98.42
24858;BME280;12935;50.782;6.074;2023-07-20T08:56:46;99481.84;;;20.03;91.26
24858;BME280;12935;50.782;6.074;2023-07-20T08:59:13;99478.44;;;19.89;90.27
24858;BME280;12935;50.782;6.074;2023-07-20T09:01:41;99478.16;;;20.06;91.66
24858;BME280;12935;50.782;6.074;2023-07-20T09:04:08;99481.25;;;19.99;91.71
24858;BME280;12935;50.782;6.074;2023-07-20T09:06:34;99477.75;;;20.25;90.63
24858;BME280;12935;50.782;6.074;2023-07-20T09:09:00;99477.72;;;20.16;90.03
24858;BME280;12935;50.782;6.074;2023-07-20T09:11:25;99476.34;;;20.12;88.07
24858;BME280;12935;50.782;6.074;2023-07-20T09:14:07;99471.47;;;19.85;85.79
24858;BME280;12935;50.782;6.074;2023-07-20T09:16:39;99470.66;;;20.33;81.85
24858;BME280;12935;50.782;6.074;2023-07-20T09:19:12;99474.88;;;20.38;81.48
24858;BME280;12935;50.782;6.074;2023-07-20T09:21:37;99483.66;;;20.64;81.46
24858;BME280;12935;50.782;6.074;2023-07-20T09:24:03;99481.97;;;21.21;77.82
24858;BME280;12935;50.782;6.074;2023-07-20T09:26:28;99493.59;;;21.53;75.36
24858;BME280;12935;50.782;6.074;2023-07-20T09:28:53;99477.72;;;21.44;70.69
24858;BME280;12935;50.782;6.074;2023-07-20T09:31:22;99486.75;;;21.21;73.29
24858;BME280;12935;50.782;6.074;2023-07-20T09:33:49;99472.06;;;21.20;75.18
24858;BME280;12935;50.782;6.074;2023-07-20T09:36:15;99470.22;;;21.68;74.74
24858;BME280;12935;50.782;6.074;2023-07-20T09:38:43;99469.66;;;21.88;72.74
24858;BME280;12935;50.782;6.074;2023-07-20T09:41:13;99473.38;;;21.43;73.63
24858;BME280;12935;50.782;6.074;2023-07-20T09:43:40;99470.09;;;20.93;75.79
24858;BME280;12935;50.782;6.074;2023-07-20T09:46:06;99468.22;;;20.63;78.12
24858;BME280;12935;50.782;6.074;2023-07-20T09:48:32;99472.53;;;21.00;77.85
24858;BME280;12935;50.782;6.074;2023-07-20T09:50:57;99467.91;;;21.25;75.55
24858;BME280;12935;50.782;6.074;2023-07-20T09:53:25;99472.66;;;21.33;74.73
24858;BME280;12935;50.782;6.074;2023-07-20T09:55:52;99469.22;;;21.48;75.37
24858;BME280;12935;50.782;6.074;2023-07-20T09:58:17;99465.44;;;21.69;74.95
24858;BME280;12935;50.782;6.074;2023-07-20T10:00:44;99474.06;;;21.29;74.42
24858;BME280;12935;50.782;6.074;2023-07-20T10:03:18;99474.25;;;21.07;76.31
24858;BME280;12935;50.782;6.074;2023-07-20T10:05:47;99475.63;;;21.02;74.88
24858;BME280;12935;50.782;6.074;2023-07-20T10:08:15;99479.66;;;20.74;76.02
24858;BME280;12935;50.782;6.074;2023-07-20T10:10:42;99473.66;;;20.57;71.18
24858;BME280;12935;50.782;6.074;2023-07-20T10:13:13;99468.72;;;20.52;71.30
24858;BME280;12935;50.782;6.074;2023-07-20T10:15:54;99477.06;;;20.61;72.32
24858;BME280;12935;50.782;6.074;2023-07-20T10:18:29;99475.50;;;20.70;75.03
24858;BME280;12935;50.782;6.074;2023-07-20T10:20:59;99462.84;;;20.41;77.05
24858;BME280;12935;50.782;6.074;2023-07-20T10:23:26;99471.47;;;20.52;79.14
24858;BME280;12935;50.782;6.074;2023-07-20T10:25:53;99476.41;;;20.48;78.17
24858;BME280;12935;50.782;6.074;2023-07-20T10:28:19;99483.03;;;20.96;76.02
24858;BME280;12935;50.782;6.074;2023-07-20T10:30:45;99475.50;;;21.57;73.17
24858;BME280;12935;50.782;6.074;2023-07-20T10:33:11;99480.59;;;22.01;69.96
24858;BME280;12935;50.782;6.074;2023-07-20T10:35:56;99479.38;;;22.02;68.23
24858;BME280;12935;50.782;6.074;2023-07-20T10:41:20;99469.94;;;21.90;66.54
24858;BME280;12935;50.782;6.074;2023-07-20T10:43:47;99463.91;;;21.92;68.09
24858;BME280;12935;50.782;6.074;2023-07-20T10:46:13;99463.16;;;21.91;68.42
24858;BME280;12935;50.782;6.074;2023-07-20T10:49:02;99451.00;;;22.13;64.14
24858;BME280;12935;50.782;6.074;2023-07-20T10:51:27;99455.50;;;22.10;66.11
24858;BME280;12935;50.782;6.074;2023-07-20T10:53:55;99445.88;;;22.73;60.26
24858;BME280;12935;50.782;6.074;2023-07-20T10:56:23;99448.19;;;23.14;58.50
24858;BME280;12935;50.782;6.074;2023-07-20T10:58:48;99455.00;;;23.57;58.18
24858;BME280;12935;50.782;6.074;2023-07-20T11:01:16;99448.56;;;23.86;57.05
24858;BME280;12935;50.782;6.074;2023-07-20T11:03:41;99445.53;;;24.04;55.00
24858;BME280;12935;50.782;6.074;2023-07-20T11:11:30;99439.84;;;24.79;51.75
24858;BME280;12935;50.782;6.074;2023-07-20T11:14:00;99440.09;;;25.02;49.40
24858;BME280;12935;50.782;6.074;2023-07-20T11:16:35;99446.50;;;25.65;50.12
24858;BME280;12935;50.782;6.074;2023-07-20T11:19:02;99448.09;;;26.26;48.03
24858;BME280;12935;50.782;6.074;2023-07-20T11:21:29;99435.03;;;26.76;45.79
24858;BME280;12935;50.782;6.074;2023-07-20T11:23:55;99444.19;;;26.60;44.97
24858;BME280;12935;50.782;6.074;2023-07-20T11:26:21;99445.78;;;26.89;44.28
24858;BME280;12935;50.782;6.074;2023-07-20T11:28:50;99434.31;;;26.87;44.38
24858;BME280;12935;50.782;6.074;2023-07-20T11:31:17;99429.16;;;26.04;44.42
24858;BME280;12935;50.782;6.074;2023-07-20T11:33:42;99433.06;;;24.86;45.04
24858;BME280;12935;50.782;6.074;2023-07-20T11:36:10;99431.72;;;25.33;46.59
24858;BME280;12935;50.782;6.074;2023-07-20T11:38:35;99430.00;;;25.41;45.28
24858;BME280;12935;50.782;6.074;2023-07-20T11:41:03;99427.56;;;25.55;45.65
24858;BME280;12935;50.782;6.074;2023-07-20T11:43:29;99426.84;;;24.97;45.91
24858;BME280;12935;50.782;6.074;2023-07-20T11:45:54;99430.72;;;24.18;46.13
24858;BME280;12935;50.782;6.074;2023-07-20T11:48:20;99423.66;;;24.37;45.97
24858;BME280;12935;50.782;6.074;2023-07-20T11:50:45;99427.34;;;23.94;47.33
24858;BME280;12935;50.782;6.074;2023-07-20T11:53:11;99413.50;;;23.64;49.10
24858;BME280;12935;50.782;6.074;2023-07-20T11:55:38;99423.31;;;24.56;48.43
24858;BME280;12935;50.782;6.074;2023-07-20T11:58:05;99421.09;;;24.60;44.47
24858;BME280;12935;50.782;6.074;2023-07-20T12:00:31;99411.31;;;24.09;44.85
24858;BME280;12935;50.782;6.074;2023-07-20T12:02:57;99427.53;;;24.05;45.66
24858;BME280;12935;50.782;6.074;2023-07-20T12:05:22;99416.44;;;24.51;42.67
24858;BME280;12935;50.782;6.074;2023-07-20T12:07:49;99411.81;;;24.94;44.30
24858;BME280;12935;50.782;6.074;2023-07-20T12:10:15;99406.03;;;24.31;46.48
24858;BME280;12935;50.782;6.074;2023-07-20T12:12:43;99408.63;;;23.59;48.17
24858;BME280;12935;50.782;6.074;2023-07-20T12:15:24;99415.91;;;24.12;48.00
24858;BME280;12935;50.782;6.074;2023-07-20T12:17:58;99404.84;;;24.38;45.19
24858;BME280;12935;50.782;6.074;2023-07-20T12:20:35;99403.84;;;24.41;45.50
24858;BME280;12935;50.782;6.074;2023-07-20T12:23:10;99401.72;;;24.30;45.19
24858;BME280;12935;50.782;6.074;2023-07-20T12:25:40;99400.00;;;24.85;45.39
24858;BME280;12935;50.782;6.074;2023-07-20T12:28:18;99395.88;;;25.69;43.81
24858;BME280;12935;50.782;6.074;2023-07-20T12:30:45;99389.56;;;25.42;43.12
24858;BME280;12935;50.782;6.074;2023-07-20T12:33:11;99390.19;;;25.95;42.36
24858;BME280;12935;50.782;6.074;2023-07-20T12:35:39;99391.78;;;26.12;41.59
24858;BME280;12935;50.782;6.074;2023-07-20T12:38:04;99393.41;;;25.82;42.10
24858;BME280;12935;50.782;6.074;2023-07-20T12:40:30;99389.22;;;26.09;42.21
24858;BME280;12935;50.782;6.074;2023-07-20T12:42:57;99385.47;;;25.38;42.53
24858;BME280;12935;50.782;6.074;2023-07-20T12:45:22;99385.94;;;25.62;41.52
24858;BME280;12935;50.782;6.074;2023-07-20T12:47:47;99381.25;;;25.91;41.21
24858;BME280;12935;50.782;6.074;2023-07-20T12:50:13;99388.44;;;26.14;40.74
24858;BME280;12935;50.782;6.074;2023-07-20T12:52:40;99388.41;;;26.84;41.61
24858;BME280;12935;50.782;6.074;2023-07-20T12:55:06;99387.38;;;26.71;39.90
24858;BME280;12935;50.782;6.074;2023-07-20T12:57:33;99381.00;;;26.65;39.83
24858;BME280;12935;50.782;6.074;2023-07-20T12:59:59;99375.69;;;26.95;39.73
24858;BME280;12935;50.782;6.074;2023-07-20T13:02:24;99372.81;;;26.61;40.12
24858;BME280;12935;50.782;6.074;2023-07-20T13:04:49;99372.91;;;27.17;38.96
24858;BME280;12935;50.782;6.074;2023-07-20T13:07:14;99369.03;;;27.59;36.72
24858;BME280;12935;50.782;6.074;2023-07-20T13:09:40;99369.53;;;27.69;35.19